Terminal Aerodrome Forecast
Issued by NWS Louisville, KY

Home | Current Version | Previous Version | Text Only | Print | Product List | Glossary On
Versions: 1 2 3 4 5 6 7 8 9 10 11 12 13 14 15 16 17 18 19 20 21 22 23
000
FTUS43 KLMK 222300
TAFLEX
TAF
KLEX 222330Z 2300/2324 13006KT P6SM BKN035
     FM230400 15009KT P6SM VCSH OVC030
     FM230900 17011KT 5SM -SHRA BR OVC020
     FM231600 18008KT 5SM BR VCSH OVC025
     FM232100 14007KT 6SM BR VCSH OVC025=

USA.gov is the U.S. government's official web portal to all federal, state and local government web resources and services.